createdAt,value
2022-11-16T00:01:14.368Z,9.98
2022-11-16T00:03:43.950Z,7.13
2022-11-16T00:06:12.675Z,9.77
2022-11-16T00:08:42.006Z,10.77
2022-11-16T00:11:11.041Z,8.52
2022-11-16T00:13:39.969Z,9.02
2022-11-16T00:16:08.322Z,9.25
2022-11-16T00:18:36.511Z,9.77
2022-11-16T00:21:06.485Z,9.02
2022-11-16T00:23:36.477Z,9.45
2022-11-16T00:26:05.374Z,10.45
2022-11-16T00:28:33.826Z,15.15
2022-11-16T00:31:02.230Z,10.77
2022-11-16T00:33:30.278Z,11.90
2022-11-16T00:35:58.285Z,12.55
2022-11-16T00:38:27.571Z,10.07
2022-11-16T00:40:55.647Z,9.65
2022-11-16T00:43:23.484Z,11.90
2022-11-16T00:45:51.650Z,10.50
2022-11-16T00:48:19.520Z,12.77
2022-11-16T00:50:47.921Z,13.52
2022-11-16T00:53:17.029Z,12.57
2022-11-16T00:55:47.102Z,11.57
2022-11-16T00:58:15.698Z,11.50
2022-11-16T01:00:44.546Z,10.80
2022-11-16T01:03:13.083Z,11.75
2022-11-16T01:05:41.342Z,12.57
2022-11-16T01:08:09.343Z,8.70
2022-11-16T01:10:39.038Z,11.30
2022-11-16T01:13:07.533Z,13.45
2022-11-16T01:15:35.497Z,13.18
2022-11-16T01:18:03.678Z,11.70
2022-11-16T01:20:31.927Z,14.55
2022-11-16T01:22:59.745Z,13.55
2022-11-16T01:25:27.965Z,12.57
2022-11-16T01:27:55.944Z,11.40
2022-11-16T01:30:25.206Z,12.13
2022-11-16T01:32:53.287Z,13.32
2022-11-16T01:35:21.536Z,13.52
2022-11-16T01:37:49.432Z,17.15
2022-11-16T01:40:17.356Z,12.45
2022-11-16T01:42:45.520Z,13.38
2022-11-16T01:45:24.444Z,16.80
2022-11-16T01:47:54.870Z,17.23
2022-11-16T01:50:23.713Z,12.77
2022-11-16T01:52:53.592Z,16.02
2022-11-16T01:55:22.065Z,19.05
2022-11-16T01:57:50.471Z,14.48
2022-11-16T02:00:19.059Z,15.98
2022-11-16T02:02:47.316Z,18.95
2022-11-16T02:05:17.944Z,16.20
2022-11-16T02:08:23.095Z,14.55
2022-11-16T02:10:57.984Z,15.32
2022-11-16T02:13:33.308Z,16.27
2022-11-16T02:16:06.397Z,18.33
2022-11-16T02:21:09.950Z,16.73
2022-11-16T02:23:46.668Z,18.55
2022-11-16T02:26:27.552Z,24.35
2022-11-16T02:29:04.238Z,17.30
2022-11-16T02:31:35.837Z,17.65
2022-11-16T02:34:05.119Z,19.13
2022-11-16T02:36:33.771Z,16.35
2022-11-16T02:39:04.796Z,22.40
2022-11-16T02:41:34.933Z,16.15
2022-11-16T02:44:06.104Z,18.73
2022-11-16T02:46:37.929Z,18.90
2022-11-16T02:49:08.506Z,21.27
2022-11-16T02:51:37.274Z,18.92
2022-11-16T02:54:08.548Z,16.80
2022-11-16T02:56:42.900Z,20.17
2022-11-16T02:59:17.401Z,21.50
2022-11-16T03:01:49.251Z,18.30
2022-11-16T03:04:20.170Z,21.45
2022-11-16T03:06:49.549Z,20.63
2022-11-16T03:09:19.330Z,18.20
2022-11-16T03:12:00.204Z,18.42
2022-11-16T03:14:32.201Z,20.40
2022-11-16T03:17:01.433Z,19.33
2022-11-16T03:19:33.752Z,18.10
2022-11-16T03:22:04.749Z,17.67
2022-11-16T03:24:33.259Z,19.48
2022-11-16T03:27:03.326Z,20.58
2022-11-16T03:29:33.401Z,19.77
2022-11-16T03:32:04.799Z,19.48
2022-11-16T03:34:34.696Z,22.55
2022-11-16T03:37:04.007Z,18.20
2022-11-16T03:39:34.220Z,19.00
2022-11-16T03:42:04.006Z,18.13
2022-11-16T03:44:33.851Z,17.17
2022-11-16T03:47:02.491Z,18.85
2022-11-16T03:49:30.799Z,18.05
2022-11-16T03:51:59.448Z,20.58
2022-11-16T03:54:27.731Z,17.67
2022-11-16T03:56:55.570Z,20.05
2022-11-16T03:59:23.547Z,17.48
2022-11-16T04:01:52.786Z,17.52
2022-11-16T04:04:38.291Z,15.52
2022-11-16T04:07:23.536Z,21.40
2022-11-16T04:10:08.780Z,19.85
2022-11-16T04:12:54.231Z,18.23
2022-11-16T04:15:39.533Z,18.70
2022-11-16T04:18:29.222Z,19.60
2022-11-16T04:21:14.814Z,22.02
2022-11-16T04:24:00.531Z,19.52
2022-11-16T04:26:58.125Z,21.08
2022-11-16T04:29:25.309Z,18.25
2022-11-16T04:32:10.824Z,17.20
2022-11-16T04:34:57.347Z,23.90
2022-11-16T04:37:42.683Z,21.33
2022-11-16T04:40:11.201Z,16.33
2022-11-16T04:42:39.183Z,18.95
2022-11-16T04:45:24.838Z,17.23
2022-11-16T04:47:53.298Z,18.80
2022-11-16T04:50:22.562Z,18.05
2022-11-16T04:52:50.732Z,21.52
2022-11-16T04:55:18.678Z,17.48
2022-11-16T04:57:46.827Z,19.95
2022-11-16T05:00:15.892Z,20.90
2022-11-16T05:02:43.890Z,20.15
2022-11-16T05:05:11.833Z,20.40
2022-11-16T05:07:41.375Z,21.75
2022-11-16T05:10:09.634Z,19.80
2022-11-16T05:12:37.522Z,20.70
2022-11-16T05:15:05.783Z,19.73
2022-11-16T05:17:34.188Z,23.50
2022-11-16T05:20:19.343Z,20.45
2022-11-16T05:22:55.040Z,29.70
2022-11-16T05:25:21.904Z,25.80
2022-11-16T05:27:49.747Z,19.42
2022-11-16T05:30:17.755Z,22.00
2022-11-16T05:32:45.623Z,22.20
2022-11-16T05:35:13.658Z,25.15
2022-11-16T05:37:41.798Z,22.00
2022-11-16T05:40:11.989Z,21.80
2022-11-16T05:42:39.851Z,25.40
2022-11-16T05:45:08.332Z,23.35
2022-11-16T05:47:36.480Z,22.77
2022-11-16T05:50:04.550Z,24.25
2022-11-16T05:52:32.429Z,28.25
2022-11-16T05:55:00.406Z,22.77
2022-11-16T05:57:29.566Z,28.67
2022-11-16T05:59:57.379Z,21.45
2022-11-16T06:02:25.455Z,22.23
2022-11-16T06:04:53.271Z,24.45
2022-11-16T06:07:21.221Z,27.42
2022-11-16T06:09:49.087Z,23.00
2022-11-16T06:12:17.134Z,27.58
2022-11-16T06:14:46.295Z,23.58
2022-11-16T06:17:14.692Z,27.40
2022-11-16T06:19:42.901Z,23.23
2022-11-16T06:22:10.759Z,25.67
2022-11-16T06:24:38.662Z,23.75
2022-11-16T06:27:06.539Z,26.70
2022-11-16T06:29:34.394Z,26.23
2022-11-16T06:32:04.005Z,23.73
2022-11-16T06:34:31.845Z,22.25
2022-11-16T06:37:00.187Z,27.67
2022-11-16T06:39:28.024Z,27.10
2022-11-16T06:41:56.051Z,26.98
2022-11-16T06:44:24.169Z,29.27
2022-11-16T06:46:52.011Z,26.95
2022-11-16T06:49:21.653Z,33.90
2022-11-16T06:51:49.469Z,32.40
2022-11-16T06:54:17.337Z,30.55
2022-11-16T06:56:46.943Z,35.45
2022-11-16T06:59:14.941Z,30.48
2022-11-16T07:01:43.032Z,30.75
2022-11-16T07:04:12.038Z,32.75
2022-11-16T07:06:41.730Z,32.45
2022-11-16T07:09:10.045Z,32.83
2022-11-16T07:11:38.153Z,28.70
2022-11-16T07:14:06.398Z,28.75
2022-11-16T07:16:35.623Z,30.48
2022-11-16T07:19:04.338Z,28.98
2022-11-16T07:21:32.356Z,32.90
2022-11-16T07:24:01.617Z,33.63
2022-11-16T07:26:31.350Z,29.58
2022-11-16T07:28:59.331Z,31.08
2022-11-16T07:31:27.236Z,27.45
2022-11-16T07:33:55.216Z,31.83
2022-11-16T07:36:23.081Z,25.55
2022-11-16T07:38:50.882Z,25.25
2022-11-16T07:41:20.969Z,29.25
2022-11-16T07:43:52.958Z,27.42
2022-11-16T07:46:46.069Z,34.40
2022-11-16T07:49:12.751Z,26.42
2022-11-16T07:51:40.565Z,27.02
2022-11-16T07:54:08.546Z,27.80
2022-11-16T07:56:37.742Z,26.92
2022-11-16T07:59:06.016Z,28.58
2022-11-16T08:01:34.434Z,29.70
2022-11-16T08:04:02.872Z,28.58
2022-11-16T08:06:32.234Z,26.00
2022-11-16T08:09:00.800Z,27.15
2022-11-16T08:11:28.714Z,26.73
2022-11-16T08:13:58.398Z,24.75
2022-11-16T08:16:26.244Z,25.92
2022-11-16T08:18:54.083Z,28.00
2022-11-16T08:21:22.146Z,24.90
2022-11-16T08:23:53.831Z,30.60
2022-11-16T08:26:23.249Z,27.30
2022-11-16T08:28:53.768Z,25.25
2022-11-16T08:31:24.827Z,27.17
2022-11-16T08:33:52.826Z,26.25
2022-11-16T08:36:21.207Z,27.73
2022-11-16T08:38:49.907Z,24.95
2022-11-16T08:41:18.533Z,25.30
2022-11-16T08:43:47.473Z,26.55
2022-11-16T08:46:16.157Z,28.48
2022-11-16T08:48:46.010Z,31.30
2022-11-16T08:51:19.186Z,36.42
2022-11-16T08:53:49.532Z,35.92
2022-11-16T08:56:18.825Z,28.88
2022-11-16T08:58:47.910Z,37.10
2022-11-16T09:01:17.635Z,31.65
2022-11-16T09:03:47.082Z,27.45
2022-11-16T09:06:15.818Z,24.92
2022-11-16T09:08:44.098Z,30.50
2022-11-16T09:11:12.508Z,25.33
2022-11-16T09:13:40.605Z,27.45
2022-11-16T09:16:08.873Z,24.60
2022-11-16T09:18:37.528Z,27.48
2022-11-16T09:21:07.027Z,26.08
2022-11-16T09:23:35.053Z,24.40
2022-11-16T09:26:03.413Z,24.52
2022-11-16T09:28:31.811Z,26.50
2022-11-16T09:31:00.521Z,26.13
2022-11-16T09:33:29.214Z,26.95
2022-11-16T09:35:57.192Z,26.00
2022-11-16T09:38:40.246Z,29.85
2022-11-16T09:41:22.305Z,28.45
2022-11-16T09:43:54.614Z,25.52
2022-11-16T09:46:24.505Z,32.75
2022-11-16T09:48:53.955Z,33.78
2022-11-16T09:51:23.248Z,34.85
2022-11-16T09:53:54.334Z,31.20
2022-11-16T09:56:23.832Z,23.80
2022-11-16T09:58:55.001Z,35.67
2022-11-16T10:01:24.937Z,26.75
2022-11-16T10:03:54.966Z,26.35
2022-11-16T10:06:23.716Z,24.08
2022-11-16T10:08:56.534Z,26.92
2022-11-16T10:11:29.647Z,31.55
2022-11-16T10:14:04.173Z,47.80
2022-11-16T10:16:38.029Z,39.33
2022-11-16T10:19:11.147Z,42.67
2022-11-16T10:21:44.836Z,36.30
2022-11-16T10:24:24.546Z,23.27
2022-11-16T10:26:56.675Z,22.38
2022-11-16T10:29:33.554Z,22.40
2022-11-16T10:32:09.179Z,27.17
2022-11-16T10:34:44.094Z,27.50
2022-11-16T10:37:13.988Z,29.80
2022-11-16T10:39:43.528Z,27.25
2022-11-16T10:42:12.738Z,28.25
2022-11-16T10:44:42.951Z,24.00
2022-11-16T10:47:17.846Z,24.00
2022-11-16T10:49:50.562Z,28.35
2022-11-16T10:52:18.474Z,28.83
2022-11-16T10:54:47.918Z,27.42
2022-11-16T10:57:15.779Z,28.17
2022-11-16T10:59:44.775Z,28.65
2022-11-16T11:02:28.102Z,26.75
2022-11-16T11:07:25.300Z,39.65
2022-11-16T11:09:55.254Z,34.55
2022-11-16T11:12:39.027Z,35.45
2022-11-16T11:15:24.409Z,33.80
2022-11-16T11:18:11.183Z,35.22
2022-11-16T11:20:44.808Z,33.90
2022-11-16T11:23:14.867Z,37.75
2022-11-16T11:25:49.610Z,37.70
2022-11-16T11:28:21.113Z,38.50
2022-11-16T11:30:57.296Z,35.78
2022-11-16T11:33:26.778Z,35.45
2022-11-16T11:35:58.687Z,32.92
2022-11-16T11:38:26.899Z,33.90
2022-11-16T11:40:59.698Z,37.85
2022-11-16T11:43:28.703Z,35.15
2022-11-16T11:45:59.786Z,36.17
2022-11-16T11:48:31.138Z,33.65
2022-11-16T11:51:00.236Z,35.15
2022-11-16T11:53:40.401Z,31.98
2022-11-16T11:56:11.360Z,33.47
2022-11-16T11:58:40.279Z,32.13
2022-11-16T12:01:25.612Z,33.22
2022-11-16T12:04:06.947Z,28.92
2022-11-16T12:06:42.619Z,32.75
2022-11-16T12:09:16.950Z,26.63
2022-11-16T12:11:52.582Z,33.05
2022-11-16T12:14:30.111Z,31.75
2022-11-16T12:17:02.082Z,48.10
2022-11-16T12:19:43.654Z,36.83
2022-11-16T12:22:16.579Z,32.75
2022-11-16T12:24:52.766Z,26.10
2022-11-16T12:27:27.410Z,23.85
2022-11-16T12:30:01.778Z,28.50
2022-11-16T12:32:45.010Z,28.67
2022-11-16T12:37:44.677Z,31.85
2022-11-16T12:40:23.851Z,39.40
2022-11-16T12:42:56.004Z,29.60
2022-11-16T12:45:33.489Z,28.33
2022-11-16T12:48:19.569Z,29.15
2022-11-16T12:50:52.809Z,31.73
2022-11-16T12:53:27.056Z,30.13
2022-11-16T12:55:58.662Z,31.80
2022-11-16T12:58:33.219Z,36.08
2022-11-16T13:01:06.196Z,34.85
2022-11-16T13:06:03.783Z,33.50
2022-11-16T13:08:46.949Z,34.40
2022-11-16T13:11:16.540Z,32.25
2022-11-16T13:13:52.731Z,31.55
2022-11-16T13:16:21.981Z,27.70
2022-11-16T13:18:50.032Z,29.02
2022-11-16T13:21:21.907Z,28.50
2022-11-16T13:23:54.545Z,29.30
2022-11-16T13:26:28.223Z,27.83
2022-11-16T13:28:59.718Z,32.92
2022-11-16T13:31:32.580Z,27.25
2022-11-16T13:34:02.747Z,26.90
2022-11-16T13:36:43.669Z,29.00
2022-11-16T13:39:17.004Z,29.75
2022-11-16T13:41:47.849Z,31.40
2022-11-16T13:44:25.473Z,31.17
2022-11-16T13:46:56.517Z,28.08
2022-11-16T13:49:27.001Z,30.75
2022-11-16T13:51:56.515Z,31.23
2022-11-16T13:54:45.067Z,29.52
2022-11-16T13:57:22.145Z,32.35
2022-11-16T13:59:54.517Z,27.52
2022-11-16T14:02:32.350Z,29.10
2022-11-16T14:05:01.282Z,30.15
2022-11-16T14:07:31.013Z,29.35
2022-11-16T14:09:59.473Z,26.05
2022-11-16T14:12:58.221Z,32.08
2022-11-16T14:15:34.337Z,25.80
2022-11-16T14:18:04.457Z,28.48
2022-11-16T14:20:45.292Z,30.15
2022-11-16T14:23:16.496Z,35.25
2022-11-16T14:25:47.580Z,34.42
2022-11-16T14:28:28.916Z,34.40
2022-11-16T14:31:06.656Z,35.67
2022-11-16T14:33:36.021Z,35.03
2022-11-16T14:36:05.274Z,34.15
2022-11-16T14:38:34.262Z,31.38
2022-11-16T14:41:03.582Z,36.03
2022-11-16T14:43:35.618Z,36.25
2022-11-16T14:46:06.983Z,28.40
2022-11-16T14:48:35.557Z,28.95
2022-11-16T14:51:07.004Z,28.20
2022-11-16T14:53:36.235Z,23.05
2022-11-16T14:56:09.063Z,19.95
2022-11-16T14:58:37.243Z,24.23
2022-11-16T15:01:08.638Z,30.65
2022-11-16T15:03:39.691Z,25.90
2022-11-16T15:06:08.075Z,27.17
2022-11-16T15:08:38.635Z,24.33
2022-11-16T15:11:08.638Z,23.50
2022-11-16T15:13:37.111Z,25.48
2022-11-16T15:16:16.863Z,23.25
2022-11-16T15:18:56.712Z,23.58
2022-11-16T15:21:24.824Z,26.83
2022-11-16T15:24:15.650Z,27.35
2022-11-16T15:26:41.540Z,21.80
2022-11-16T15:29:14.827Z,24.48
2022-11-16T15:31:44.242Z,24.33
2022-11-16T15:34:13.073Z,24.10
2022-11-16T15:36:41.687Z,24.10
2022-11-16T15:39:12.908Z,24.88
2022-11-16T15:41:41.049Z,22.45
2022-11-16T15:44:14.690Z,23.02
2022-11-16T15:46:46.185Z,22.10
2022-11-16T15:49:20.605Z,21.65
2022-11-16T15:51:48.835Z,23.08
2022-11-16T15:54:23.072Z,24.65
2022-11-16T15:56:51.515Z,21.45
2022-11-16T15:59:23.476Z,23.52
2022-11-16T16:01:54.737Z,22.92
2022-11-16T16:04:23.334Z,24.10
2022-11-16T16:06:52.367Z,25.05
2022-11-16T16:09:25.309Z,25.17
2022-11-16T16:11:54.018Z,23.58
2022-11-16T16:14:23.015Z,24.63
2022-11-16T16:16:51.473Z,22.73
2022-11-16T16:19:31.193Z,21.80
2022-11-16T16:21:59.755Z,26.73
2022-11-16T16:24:43.116Z,28.30
2022-11-16T16:27:15.803Z,25.48
2022-11-16T16:29:44.333Z,22.77
2022-11-16T16:32:18.855Z,24.90
2022-11-16T16:34:48.242Z,27.60
2022-11-16T16:37:16.584Z,25.83
2022-11-16T16:39:44.528Z,27.58
2022-11-16T16:42:13.789Z,29.55
2022-11-16T16:44:42.232Z,27.50
2022-11-16T16:47:10.614Z,27.70
2022-11-16T16:49:38.446Z,26.08
2022-11-16T16:52:08.254Z,27.23
2022-11-16T16:54:36.665Z,26.27
2022-11-16T16:57:04.597Z,29.58
2022-11-16T16:59:32.753Z,27.13
2022-11-16T17:02:00.614Z,27.48
2022-11-16T17:04:28.425Z,27.60
2022-11-16T17:06:56.293Z,26.13
2022-11-16T17:09:25.836Z,27.42
2022-11-16T17:11:53.675Z,27.98
2022-11-16T17:14:24.348Z,30.25
2022-11-16T17:16:52.249Z,27.95
2022-11-16T17:19:21.062Z,29.88
2022-11-16T17:21:49.086Z,25.52
2022-11-16T17:24:16.938Z,30.33
2022-11-16T17:26:48.251Z,25.27
2022-11-16T17:29:16.599Z,26.48
2022-11-16T17:31:44.887Z,28.35
2022-11-16T17:34:14.108Z,31.30
2022-11-16T17:36:42.482Z,35.67
2022-11-16T17:39:10.536Z,31.10
2022-11-16T17:41:38.635Z,31.70
2022-11-16T17:44:08.615Z,28.58
2022-11-16T17:46:36.423Z,26.10
2022-11-16T17:49:04.516Z,33.38
2022-11-16T17:51:32.328Z,29.30
2022-11-16T17:54:00.186Z,30.60
2022-11-16T17:56:28.955Z,36.58
2022-11-16T17:58:58.449Z,31.88
2022-11-16T18:01:28.155Z,33.33
2022-11-16T18:03:56.251Z,31.60
2022-11-16T18:06:25.061Z,34.47
2022-11-16T18:08:53.209Z,31.70
2022-11-16T18:11:21.877Z,26.60
2022-11-16T18:13:53.017Z,32.60
2022-11-16T18:16:22.915Z,31.83
2022-11-16T18:18:56.798Z,34.00
2022-11-16T18:21:24.863Z,36.03
2022-11-16T18:23:52.765Z,33.88
2022-11-16T18:26:21.729Z,29.42
2022-11-16T18:28:50.179Z,34.58
2022-11-16T18:31:18.928Z,30.40
2022-11-16T18:33:47.697Z,31.55
2022-11-16T18:36:17.296Z,34.30
2022-11-16T18:38:45.396Z,35.33
2022-11-16T18:41:19.710Z,34.33
2022-11-16T18:43:51.459Z,34.67
2022-11-16T18:46:20.072Z,37.35
2022-11-16T18:48:48.103Z,33.72
2022-11-16T18:51:17.797Z,34.53
2022-11-16T18:53:45.843Z,32.15
2022-11-16T18:56:13.905Z,34.67
2022-11-16T18:58:51.000Z,31.98
2022-11-16T19:01:20.916Z,28.08
2022-11-16T19:03:48.954Z,30.23
2022-11-16T19:06:18.397Z,33.83
2022-11-16T19:08:53.664Z,26.85
2022-11-16T19:11:23.818Z,30.33
2022-11-16T19:13:53.503Z,26.88
2022-11-16T19:16:22.046Z,28.58
2022-11-16T19:18:50.000Z,24.55
2022-11-16T19:21:19.568Z,24.17
2022-11-16T19:23:47.954Z,24.40
2022-11-16T19:26:17.542Z,19.92
2022-11-16T19:28:45.883Z,22.27
2022-11-16T19:31:15.145Z,22.10
2022-11-16T19:33:43.208Z,24.42
2022-11-16T19:36:12.117Z,24.42
2022-11-16T19:38:41.298Z,26.08
2022-11-16T19:41:10.454Z,22.80
2022-11-16T19:43:38.587Z,25.30
2022-11-16T19:46:07.334Z,20.95
2022-11-16T19:48:35.406Z,25.08
2022-11-16T19:51:06.715Z,21.50
2022-11-16T19:53:35.242Z,26.23
2022-11-16T19:56:04.715Z,22.70
2022-11-16T19:58:33.277Z,18.27
2022-11-16T20:01:01.963Z,22.98
2022-11-16T20:03:30.690Z,23.83
2022-11-16T20:06:05.663Z,20.38
2022-11-16T20:08:33.599Z,22.42
2022-11-16T20:11:01.530Z,20.67
2022-11-16T20:13:30.931Z,22.85
2022-11-16T20:16:01.916Z,20.48
2022-11-16T20:18:30.157Z,22.70
2022-11-16T20:21:00.927Z,22.45
2022-11-16T20:23:28.858Z,20.48
2022-11-16T20:25:56.682Z,21.55
2022-11-16T20:28:24.576Z,22.08
2022-11-16T20:30:53.781Z,23.58
2022-11-16T20:33:21.643Z,23.50
2022-11-16T20:35:49.978Z,17.10
2022-11-16T20:38:17.844Z,16.10
2022-11-16T20:40:45.933Z,15.73
2022-11-16T20:43:14.386Z,17.25
2022-11-16T20:45:42.223Z,20.98
2022-11-16T20:48:11.398Z,16.90
2022-11-16T20:50:39.214Z,21.27
2022-11-16T20:53:07.244Z,18.60
2022-11-16T20:55:35.084Z,13.15
2022-11-16T20:58:02.908Z,19.50
2022-11-16T21:00:30.745Z,16.60
2022-11-16T21:02:58.565Z,16.67
2022-11-16T21:05:27.825Z,17.27
2022-11-16T21:07:55.943Z,17.85
2022-11-16T21:10:23.838Z,16.27
2022-11-16T21:13:15.589Z,15.70
2022-11-16T21:15:44.632Z,13.75
2022-11-16T21:18:14.889Z,14.63
2022-11-16T21:20:44.331Z,14.15
2022-11-16T21:23:12.229Z,18.45
2022-11-16T21:25:40.136Z,14.55
2022-11-16T21:28:08.594Z,14.65
2022-11-16T21:30:36.982Z,11.63
2022-11-16T21:33:05.147Z,13.73
2022-11-16T21:35:33.071Z,11.85
2022-11-16T21:38:03.448Z,16.52
2022-11-16T21:40:31.436Z,19.17
2022-11-16T21:42:59.601Z,11.50
2022-11-16T21:45:27.644Z,11.25
2022-11-16T21:47:58.271Z,13.73
2022-11-16T21:50:31.944Z,12.38
2022-11-16T21:53:00.405Z,13.18
2022-11-16T21:55:30.129Z,13.43
2022-11-16T21:57:58.703Z,13.70
2022-11-16T22:00:28.891Z,12.00
2022-11-16T22:02:58.764Z,13.30
2022-11-16T22:05:49.971Z,14.23
2022-11-16T22:08:18.114Z,12.80
2022-11-16T22:10:53.366Z,12.60
2022-11-16T22:13:23.641Z,10.63
2022-11-16T22:15:51.467Z,10.98
2022-11-16T22:18:19.894Z,10.93
2022-11-16T22:20:48.734Z,9.85
2022-11-16T22:23:22.480Z,10.55
2022-11-16T22:25:54.797Z,10.30
2022-11-16T22:28:22.812Z,8.77
2022-11-16T22:30:59.864Z,11.52
2022-11-16T22:33:27.726Z,8.77
2022-11-16T22:35:55.818Z,8.52
2022-11-16T22:38:23.741Z,8.10
2022-11-16T22:40:53.335Z,11.55
2022-11-16T22:43:21.947Z,13.30
2022-11-16T22:45:50.169Z,8.20
2022-11-16T22:48:20.645Z,9.38
2022-11-16T22:50:49.076Z,10.23
2022-11-16T22:53:16.974Z,10.60
2022-11-16T22:55:44.838Z,9.68
2022-11-16T22:58:14.128Z,7.00
2022-11-16T23:00:42.505Z,8.10
2022-11-16T23:03:10.637Z,11.88
2022-11-16T23:05:40.483Z,7.65
2022-11-16T23:08:08.377Z,6.43
2022-11-16T23:10:56.200Z,7.43
2022-11-16T23:13:51.605Z,8.75
2022-11-16T23:16:19.482Z,7.63
2022-11-16T23:18:48.639Z,7.50
2022-11-16T23:21:34.280Z,9.20
2022-11-16T23:24:19.645Z,8.10
2022-11-16T23:27:04.749Z,8.45
2022-11-16T23:29:34.228Z,8.57
2022-11-16T23:32:02.048Z,9.65
2022-11-16T23:34:29.912Z,8.50
2022-11-16T23:37:02.654Z,16.83
2022-11-16T23:39:30.502Z,8.48
2022-11-16T23:42:16.243Z,10.07
2022-11-16T23:44:45.397Z,8.63
2022-11-16T23:47:13.217Z,10.23
2022-11-16T23:49:41.456Z,10.77
2022-11-16T23:52:09.531Z,8.38
2022-11-16T23:54:39.058Z,7.32
2022-11-16T23:57:07.001Z,9.85
2022-11-16T23:59:35.116Z,7.93
